createdAt,value
2019-03-11T00:02:26.897Z,3.60
2019-03-11T00:05:07.865Z,3.50
2019-03-11T00:07:49.004Z,3.50
2019-03-11T00:10:29.672Z,3.50
2019-03-11T00:13:10.132Z,3.50
2019-03-11T00:15:51.134Z,3.60
2019-03-11T00:18:32.220Z,3.60
2019-03-11T00:21:13.002Z,3.60
2019-03-11T00:23:54.000Z,3.60
2019-03-11T00:26:34.434Z,3.50
2019-03-11T00:29:15.330Z,3.50
2019-03-11T00:31:43.912Z,3.40
2019-03-11T00:34:12.467Z,3.30
2019-03-11T00:36:41.020Z,3.30
2019-03-11T00:39:09.708Z,3.20
2019-03-11T00:41:38.256Z,3.20
2019-03-11T00:44:06.838Z,3.30
2019-03-11T00:46:35.455Z,3.30
2019-03-11T00:49:23.353Z,3.30
2019-03-11T00:52:11.296Z,3.30
2019-03-11T00:54:59.250Z,3.20
2019-03-11T00:57:47.185Z,3.20
2019-03-11T01:00:55.858Z,3.10
2019-03-11T01:03:43.764Z,3.10
2019-03-11T01:06:31.700Z,3.20
2019-03-11T01:09:20.020Z,3.20
2019-03-11T01:12:07.991Z,3.00
2019-03-11T01:14:55.883Z,2.90
2019-03-11T01:17:43.781Z,2.80
2019-03-11T01:20:31.727Z,2.90
2019-03-11T01:23:20.117Z,2.90
2019-03-11T01:26:08.070Z,2.90
2019-03-11T01:28:55.986Z,3.00
2019-03-11T01:31:43.912Z,3.00
2019-03-11T01:34:31.829Z,3.10
2019-03-11T01:37:19.761Z,3.10
2019-03-11T01:40:28.417Z,3.10
2019-03-11T01:43:16.350Z,3.00
2019-03-11T01:49:11.242Z,2.80
2019-03-11T01:51:59.144Z,2.70
2019-03-11T01:54:47.083Z,2.70
2019-03-11T01:57:28.035Z,2.70
2019-03-11T02:00:09.108Z,2.70
2019-03-11T02:02:49.589Z,2.60
2019-03-11T02:05:30.075Z,2.50
2019-03-11T02:07:58.574Z,2.40
2019-03-11T02:10:27.235Z,2.30
2019-03-11T02:12:55.794Z,2.30
2019-03-11T02:15:24.461Z,2.30
2019-03-11T02:18:12.417Z,2.30
2019-03-11T02:21:00.303Z,2.30
2019-03-11T02:23:48.240Z,2.30
2019-03-11T02:26:36.224Z,2.30
2019-03-11T02:29:24.157Z,2.30
2019-03-11T02:32:12.080Z,2.30
2019-03-11T02:35:00.013Z,2.30
2019-03-11T02:37:47.939Z,2.30
2019-03-11T02:40:35.835Z,2.20
2019-03-11T02:43:23.773Z,2.30
2019-03-11T02:46:11.692Z,2.30
2019-03-11T02:48:59.636Z,2.20
2019-03-11T02:51:47.555Z,2.30
2019-03-11T02:54:35.471Z,2.30
2019-03-11T03:00:11.142Z,2.30
2019-03-11T03:03:11.623Z,2.30
2019-03-11T03:05:54.018Z,2.40
2019-03-11T03:08:35.067Z,2.40
2019-03-11T03:11:15.938Z,2.40
2019-03-11T03:13:57.194Z,2.00
2019-03-11T03:16:37.675Z,2.30
2019-03-11T03:19:18.897Z,2.30
2019-03-11T03:21:59.252Z,2.30
2019-03-11T03:24:40.247Z,2.30
2019-03-11T03:27:20.780Z,2.30
2019-03-11T03:30:01.451Z,2.30
2019-03-11T03:32:41.810Z,2.20
2019-03-11T03:35:23.160Z,2.30
2019-03-11T03:38:04.299Z,2.20
2019-03-11T03:40:45.269Z,2.20
2019-03-11T03:43:25.885Z,2.10
2019-03-11T03:46:17.863Z,2.10
2019-03-11T03:48:49.544Z,2.00
2019-03-11T03:51:30.505Z,2.00
2019-03-11T03:54:11.672Z,2.00
2019-03-11T03:56:54.050Z,2.10
2019-03-11T03:59:34.939Z,2.10
2019-03-11T04:02:15.531Z,2.10
2019-03-11T04:04:56.806Z,2.20
2019-03-11T04:07:37.633Z,2.20
2019-03-11T04:10:18.157Z,2.20
2019-03-11T04:12:58.516Z,2.20
2019-03-11T04:15:38.941Z,2.20
2019-03-11T04:18:20.110Z,2.20
2019-03-11T04:21:01.187Z,2.20
2019-03-11T04:23:42.192Z,2.20
2019-03-11T04:26:23.010Z,2.20
2019-03-11T04:29:03.847Z,2.20
2019-03-11T04:31:32.468Z,2.30
2019-03-11T04:34:01.052Z,2.30
2019-03-11T04:36:29.646Z,2.30
2019-03-11T04:39:17.548Z,2.40
2019-03-11T04:42:05.484Z,2.30
2019-03-11T04:44:53.383Z,2.30
2019-03-11T04:47:41.516Z,2.40
2019-03-11T04:50:29.484Z,2.40
2019-03-11T04:53:17.384Z,2.50
2019-03-11T04:56:05.308Z,2.50
2019-03-11T04:58:45.786Z,2.40
2019-03-11T05:01:26.880Z,2.50
2019-03-11T05:04:08.262Z,2.50
2019-03-11T05:06:49.104Z,2.40
2019-03-11T05:09:30.109Z,2.40
2019-03-11T05:12:10.543Z,2.30
2019-03-11T05:14:52.113Z,2.30
2019-03-11T05:17:33.080Z,2.30
2019-03-11T05:20:13.864Z,2.30
2019-03-11T05:22:55.030Z,2.30
2019-03-11T05:25:35.905Z,2.20
2019-03-11T05:28:16.421Z,2.20
2019-03-11T05:30:57.281Z,2.10
2019-03-11T05:33:38.804Z,2.10
2019-03-11T05:36:19.781Z,2.10
2019-03-11T05:39:00.823Z,2.10
2019-03-11T05:41:41.777Z,2.10
2019-03-11T05:44:21.317Z,2.10
2019-03-11T05:47:09.198Z,2.10
2019-03-11T05:49:57.308Z,2.10
2019-03-11T05:52:46.959Z,2.20
2019-03-11T05:55:36.942Z,2.20
2019-03-11T05:58:17.685Z,2.20
2019-03-11T06:00:58.317Z,2.30
2019-03-11T06:03:39.481Z,2.30
2019-03-11T06:06:19.864Z,2.30
2019-03-11T06:08:48.554Z,2.30
2019-03-11T06:11:17.360Z,2.20
2019-03-11T06:14:05.346Z,2.20
2019-03-11T06:16:54.945Z,2.10
2019-03-11T06:19:42.888Z,2.10
2019-03-11T06:22:31.176Z,2.10
2019-03-11T06:25:19.315Z,2.00
2019-03-11T06:31:14.335Z,2.10
2019-03-11T06:34:02.299Z,2.10
2019-03-11T06:36:50.222Z,2.20
2019-03-11T06:39:38.155Z,2.20
2019-03-11T06:42:06.712Z,2.30
2019-03-11T06:44:35.301Z,2.40
2019-03-11T06:47:04.044Z,2.50
2019-03-11T06:49:32.677Z,2.50
2019-03-11T06:52:20.617Z,2.60
2019-03-11T06:55:09.220Z,2.70
2019-03-11T06:57:57.168Z,2.70
2019-03-11T07:00:37.625Z,2.70
2019-03-11T07:03:18.293Z,2.90
2019-03-11T07:05:58.883Z,2.90
2019-03-11T07:08:39.725Z,2.90
2019-03-11T07:11:20.316Z,3.00
2019-03-11T07:14:01.614Z,3.10
2019-03-11T07:16:42.724Z,3.30
2019-03-11T07:19:23.812Z,3.20
2019-03-11T07:22:05.065Z,3.30
2019-03-11T07:24:46.285Z,3.40
2019-03-11T07:27:27.799Z,3.30
2019-03-11T07:30:08.448Z,3.20
2019-03-11T07:32:48.912Z,3.30
2019-03-11T07:35:30.146Z,3.30
2019-03-11T07:38:11.054Z,3.30
2019-03-11T07:40:52.027Z,3.30
2019-03-11T07:43:33.023Z,3.20
2019-03-11T07:46:13.671Z,3.30
2019-03-11T07:48:54.571Z,3.40
2019-03-11T07:51:34.962Z,3.50
2019-03-11T07:54:16.246Z,3.40
2019-03-11T07:56:57.559Z,3.50
2019-03-11T07:59:39.196Z,3.20
2019-03-11T08:02:19.911Z,3.60
2019-03-11T08:05:01.313Z,3.70
2019-03-11T08:07:41.893Z,3.70
2019-03-11T08:10:22.616Z,3.80
2019-03-11T08:13:03.726Z,3.80
2019-03-11T08:15:44.476Z,3.20
2019-03-11T08:18:34.445Z,3.70
2019-03-11T08:21:07.179Z,3.80
2019-03-11T08:23:47.601Z,3.90
2019-03-11T08:26:29.056Z,3.90
2019-03-11T08:29:09.716Z,3.90
2019-03-11T08:31:50.470Z,4.00
2019-03-11T08:34:31.025Z,4.00
2019-03-11T08:37:11.778Z,4.20
2019-03-11T08:39:52.910Z,4.30
2019-03-11T08:42:33.812Z,4.30
2019-03-11T08:45:14.325Z,4.30
2019-03-11T08:47:55.520Z,4.30
2019-03-11T08:50:36.740Z,4.30
2019-03-11T08:53:17.209Z,4.30
2019-03-11T08:55:57.701Z,4.20
2019-03-11T08:58:38.489Z,4.20
2019-03-11T09:01:18.956Z,4.30
2019-03-11T09:04:00.025Z,4.30
2019-03-11T09:06:28.585Z,4.30
2019-03-11T09:09:16.516Z,4.30
2019-03-11T09:12:04.480Z,4.40
2019-03-11T09:14:52.405Z,4.40
2019-03-11T09:17:40.434Z,4.40
2019-03-11T09:20:28.303Z,4.50
2019-03-11T09:23:16.239Z,4.60
2019-03-11T09:26:04.209Z,4.70
2019-03-11T09:28:52.165Z,4.70
2019-03-11T09:31:40.122Z,4.60
2019-03-11T09:34:28.017Z,4.80
2019-03-11T09:37:15.961Z,4.80
2019-03-11T09:40:24.619Z,4.80
2019-03-11T09:43:12.519Z,4.70
2019-03-11T09:46:00.450Z,4.60
2019-03-11T09:48:48.378Z,4.60
2019-03-11T09:51:36.308Z,4.60
2019-03-11T09:54:24.234Z,4.50
2019-03-11T09:57:12.289Z,4.60
2019-03-11T10:00:00.351Z,4.60
2019-03-11T10:02:51.776Z,4.60
2019-03-11T10:05:26.084Z,4.60
2019-03-11T10:08:06.447Z,4.60
2019-03-11T10:10:46.920Z,4.50
2019-03-11T10:13:28.010Z,4.60
2019-03-11T10:16:09.166Z,4.60
2019-03-11T10:18:50.478Z,4.70
2019-03-11T10:21:31.519Z,4.60
2019-03-11T10:24:12.638Z,4.70
2019-03-11T10:26:53.121Z,4.80
2019-03-11T10:29:33.818Z,4.80
2019-03-11T10:32:14.116Z,5.00
2019-03-11T10:34:54.621Z,5.00
2019-03-11T10:37:23.177Z,5.20
2019-03-11T10:39:51.834Z,5.30
2019-03-11T10:42:39.800Z,5.60
2019-03-11T10:45:31.581Z,5.80
2019-03-11T10:48:17.381Z,6.10
2019-03-11T10:51:05.340Z,6.40
2019-03-11T10:53:53.278Z,6.70
2019-03-11T10:56:41.179Z,7.00
2019-03-11T10:59:40.703Z,7.10
2019-03-11T11:02:18.680Z,7.20
2019-03-11T11:04:59.371Z,7.10
2019-03-11T11:07:40.377Z,7.10
2019-03-11T11:10:21.639Z,7.00
2019-03-11T11:13:02.431Z,7.00
2019-03-11T11:15:43.433Z,6.90
2019-03-11T11:18:24.101Z,6.90
2019-03-11T11:21:04.967Z,6.90
2019-03-11T11:23:46.189Z,6.80
2019-03-11T11:26:26.720Z,6.60
2019-03-11T11:29:07.826Z,6.70
2019-03-11T11:31:48.521Z,7.00
2019-03-11T11:34:29.433Z,7.10
2019-03-11T11:37:10.661Z,7.40
2019-03-11T11:39:51.585Z,7.60
2019-03-11T11:42:31.886Z,7.70
2019-03-11T11:45:12.246Z,7.70
2019-03-11T11:47:52.968Z,7.60
2019-03-11T11:50:33.792Z,7.60
2019-03-11T11:53:14.216Z,7.50
2019-03-11T11:55:57.942Z,7.40
2019-03-11T11:58:37.796Z,7.20
2019-03-11T12:01:18.502Z,7.10
2019-03-11T12:03:59.365Z,7.00
2019-03-11T12:06:40.183Z,6.70
2019-03-11T12:09:20.709Z,6.70
2019-03-11T12:12:00.708Z,6.70
2019-03-11T12:14:48.644Z,6.70
2019-03-11T12:17:36.567Z,6.80
2019-03-11T12:20:43.812Z,7.00
2019-03-11T12:23:31.716Z,6.90
2019-03-11T12:26:19.667Z,7.00
2019-03-11T12:29:07.567Z,7.10
2019-03-11T12:31:55.565Z,7.10
2019-03-11T12:34:43.503Z,7.20
2019-03-11T12:40:38.362Z,7.20
2019-03-11T12:43:26.263Z,7.10
2019-03-11T12:46:14.207Z,7.20
2019-03-11T12:49:02.093Z,7.30
2019-03-11T12:51:50.393Z,7.40
2019-03-11T12:54:40.137Z,7.50
2019-03-11T12:57:28.089Z,7.40
2019-03-11T13:00:36.736Z,7.40
2019-03-11T13:03:17.017Z,7.50
2019-03-11T13:05:58.098Z,7.60
2019-03-11T13:08:38.982Z,7.60
2019-03-11T13:11:20.032Z,7.60
2019-03-11T13:14:00.538Z,7.60
2019-03-11T13:16:41.105Z,7.50
2019-03-11T13:19:21.695Z,7.40
2019-03-11T13:22:01.584Z,7.60
2019-03-11T13:24:49.499Z,7.60
2019-03-11T13:27:37.426Z,7.70
2019-03-11T13:30:25.312Z,7.80
2019-03-11T13:33:13.245Z,7.70
2019-03-11T13:36:01.144Z,7.60
2019-03-11T13:38:49.066Z,7.50
2019-03-11T13:41:36.970Z,7.40
2019-03-11T13:44:24.900Z,7.40
2019-03-11T13:47:12.843Z,7.30
2019-03-11T13:50:01.607Z,7.40
2019-03-11T13:52:50.442Z,7.40
2019-03-11T13:55:40.831Z,7.30
2019-03-11T13:58:28.829Z,7.30
2019-03-11T14:00:57.594Z,7.30
2019-03-11T14:03:39.103Z,7.40
2019-03-11T14:06:20.324Z,7.40
2019-03-11T14:09:01.364Z,7.30
2019-03-11T14:11:42.036Z,7.20
2019-03-11T14:14:23.052Z,7.20
2019-03-11T14:17:03.570Z,7.10
2019-03-11T14:19:44.331Z,7.10
2019-03-11T14:22:24.735Z,6.80
2019-03-11T14:25:05.872Z,6.70
2019-03-11T14:27:49.626Z,6.60
2019-03-11T14:30:30.477Z,6.60
2019-03-11T14:33:11.021Z,6.40
2019-03-11T14:35:39.677Z,6.30
2019-03-11T14:38:08.263Z,6.20
2019-03-11T14:40:36.852Z,6.30
2019-03-11T14:43:24.805Z,6.30
2019-03-11T14:46:12.887Z,6.40
2019-03-11T14:49:00.793Z,6.40
2019-03-11T14:51:48.731Z,6.50
2019-03-11T14:54:36.655Z,6.50
2019-03-11T14:57:24.607Z,6.20
2019-03-11T15:00:31.933Z,6.10
2019-03-11T15:03:00.596Z,5.90
2019-03-11T15:05:48.507Z,5.90
2019-03-11T15:11:30.564Z,6.00
2019-03-11T15:16:52.345Z,6.10
2019-03-11T15:19:21.681Z,6.10
2019-03-11T15:22:09.702Z,6.10
2019-03-11T15:24:57.667Z,6.10
2019-03-11T15:27:45.821Z,6.10
2019-03-11T15:30:33.816Z,6.00
2019-03-11T15:33:21.726Z,6.00
2019-03-11T15:39:25.149Z,5.90
2019-03-11T15:42:13.041Z,5.90
2019-03-11T15:45:01.039Z,5.70
2019-03-11T15:47:48.962Z,5.70
2019-03-11T15:50:36.896Z,5.70
2019-03-11T15:53:36.654Z,5.80
2019-03-11T15:56:14.529Z,5.80
2019-03-11T15:59:02.496Z,6.00
2019-03-11T16:01:50.434Z,5.90
2019-03-11T16:04:38.395Z,5.90
2019-03-11T16:07:19.136Z,6.00
2019-03-11T16:10:00.398Z,6.10
2019-03-11T16:12:40.831Z,6.10
2019-03-11T16:15:21.993Z,6.10
2019-03-11T16:18:03.454Z,6.10
2019-03-11T16:20:44.224Z,6.00
2019-03-11T16:23:25.807Z,6.00
2019-03-11T16:26:06.806Z,6.00
2019-03-11T16:28:48.454Z,6.00
2019-03-11T16:31:17.301Z,6.00
2019-03-11T16:33:45.853Z,6.00
2019-03-11T16:36:14.580Z,6.10
2019-03-11T16:38:44.112Z,6.10
2019-03-11T16:41:12.717Z,6.10
2019-03-11T16:43:41.537Z,6.10
2019-03-11T16:46:10.137Z,6.00
2019-03-11T16:48:38.712Z,6.00
2019-03-11T16:51:07.304Z,6.00
2019-03-11T16:53:35.945Z,5.90
2019-03-11T16:59:16.800Z,5.90
2019-03-11T17:05:06.029Z,5.80
2019-03-11T17:07:46.656Z,5.70
2019-03-11T17:10:27.135Z,5.70
2019-03-11T17:13:08.061Z,5.70
2019-03-11T17:15:49.550Z,5.70
2019-03-11T17:18:30.124Z,5.60
2019-03-11T17:21:10.744Z,5.60
2019-03-11T17:23:51.720Z,5.60
2019-03-11T17:26:32.602Z,5.60
2019-03-11T17:29:13.950Z,5.60
2019-03-11T17:31:54.761Z,5.60
2019-03-11T17:34:36.049Z,5.60
2019-03-11T17:37:17.511Z,5.60
2019-03-11T17:39:58.462Z,5.60
2019-03-11T17:42:38.893Z,5.60
2019-03-11T17:45:19.328Z,5.70
2019-03-11T17:48:00.309Z,5.70
2019-03-11T17:50:41.001Z,5.70
2019-03-11T17:53:21.644Z,5.70
2019-03-11T17:56:02.409Z,5.70
2019-03-11T17:58:43.051Z,5.70
2019-03-11T18:01:24.385Z,5.70
2019-03-11T18:04:05.359Z,5.70
2019-03-11T18:06:46.641Z,5.70
2019-03-11T18:09:26.973Z,5.60
2019-03-11T18:12:07.479Z,5.50
2019-03-11T18:14:48.234Z,5.50
2019-03-11T18:17:28.793Z,5.60
2019-03-11T18:20:09.287Z,5.70
2019-03-11T18:22:50.469Z,5.80
2019-03-11T18:25:31.034Z,6.00
2019-03-11T18:27:59.603Z,6.10
2019-03-11T18:30:47.576Z,6.00
2019-03-11T18:33:35.634Z,6.10
2019-03-11T18:36:23.579Z,6.10
2019-03-11T18:39:11.625Z,6.20
2019-03-11T18:41:59.595Z,6.20
2019-03-11T18:44:47.608Z,6.20
2019-03-11T18:47:35.573Z,6.20
2019-03-11T18:50:23.953Z,6.10
2019-03-11T18:53:11.903Z,6.10
2019-03-11T18:55:59.818Z,6.00
2019-03-11T18:58:28.537Z,5.80
2019-03-11T19:04:37.165Z,5.50
2019-03-11T19:07:06.116Z,5.30
2019-03-11T19:09:46.630Z,5.20
2019-03-11T19:12:27.512Z,5.10
2019-03-11T19:15:08.564Z,5.00
2019-03-11T19:17:49.306Z,4.90
2019-03-11T19:20:30.262Z,4.90
2019-03-11T19:23:11.160Z,4.80
2019-03-11T19:25:53.136Z,4.80
2019-03-11T19:28:34.019Z,4.70
2019-03-11T19:31:15.248Z,4.70
2019-03-11T19:33:55.750Z,4.70
2019-03-11T19:36:36.982Z,4.60
2019-03-11T19:39:17.564Z,4.60
2019-03-11T19:41:58.056Z,4.50
2019-03-11T19:44:39.111Z,4.50
2019-03-11T19:50:02.924Z,4.50
2019-03-11T19:52:43.770Z,4.50
2019-03-11T19:55:24.925Z,4.50
2019-03-11T19:58:05.983Z,4.50
2019-03-11T20:00:46.756Z,4.50
2019-03-11T20:03:30.432Z,4.40
2019-03-11T20:05:58.316Z,4.40
2019-03-11T20:08:46.262Z,4.50
2019-03-11T20:11:34.208Z,4.40
2019-03-11T20:14:22.361Z,4.40
2019-03-11T20:17:10.341Z,4.40
2019-03-11T20:23:05.253Z,4.40
2019-03-11T20:25:53.237Z,4.30
2019-03-11T20:28:42.863Z,4.30
2019-03-11T20:31:32.330Z,4.30
2019-03-11T20:34:20.254Z,4.30
2019-03-11T20:37:07.910Z,4.30
2019-03-11T20:39:36.495Z,4.20
2019-03-11T20:42:24.382Z,4.20
2019-03-11T20:45:13.240Z,4.20
2019-03-11T20:48:01.086Z,4.20
2019-03-11T20:50:49.055Z,4.20
2019-03-11T20:53:37.013Z,4.10
2019-03-11T20:56:24.992Z,4.20
2019-03-11T20:59:12.882Z,4.20
2019-03-11T21:02:02.662Z,4.10
2019-03-11T21:04:52.101Z,4.10
2019-03-11T21:07:32.642Z,4.10
2019-03-11T21:10:12.678Z,4.10
2019-03-11T21:13:00.726Z,4.10
2019-03-11T21:15:48.744Z,4.10
2019-03-11T21:18:36.614Z,4.10
2019-03-11T21:21:24.583Z,4.00
2019-03-11T21:24:13.988Z,4.00
2019-03-11T21:27:02.517Z,4.00
2019-03-11T21:29:50.438Z,3.90
2019-03-11T21:32:40.016Z,3.90
2019-03-11T21:35:28.006Z,3.90
2019-03-11T21:38:17.524Z,3.90
2019-03-11T21:41:05.491Z,3.90
2019-03-11T21:43:53.395Z,3.90
2019-03-11T21:46:41.383Z,3.90
2019-03-11T21:49:29.235Z,3.80
2019-03-11T21:52:17.586Z,3.60
2019-03-11T21:55:26.278Z,3.80
2019-03-11T21:58:15.845Z,3.80
2019-03-11T22:01:03.862Z,3.80
2019-03-11T22:03:51.760Z,3.80
2019-03-11T22:06:39.661Z,3.80
2019-03-11T22:09:20.674Z,3.80
2019-03-11T22:11:49.281Z,3.80
2019-03-11T22:14:17.845Z,3.70
2019-03-11T22:16:46.434Z,3.70
2019-03-11T22:19:15.076Z,3.70
2019-03-11T22:21:43.659Z,3.70
2019-03-11T22:24:12.237Z,3.70
2019-03-11T22:26:40.793Z,3.70
2019-03-11T22:29:09.381Z,3.70
2019-03-11T22:31:37.972Z,3.70
2019-03-11T22:34:25.869Z,3.70
2019-03-11T22:37:13.791Z,3.70
2019-03-11T22:40:01.805Z,3.60
2019-03-11T22:45:43.043Z,3.50
2019-03-11T22:48:30.972Z,3.50
2019-03-11T22:51:18.888Z,3.50
2019-03-11T22:54:06.868Z,3.50
2019-03-11T22:56:54.968Z,3.50
2019-03-11T22:59:35.665Z,3.40
2019-03-11T23:02:16.319Z,3.30
2019-03-11T23:04:56.972Z,3.30
2019-03-11T23:07:37.857Z,3.30
2019-03-11T23:10:18.554Z,3.30
2019-03-11T23:12:59.203Z,3.30
2019-03-11T23:15:40.065Z,3.30
2019-03-11T23:18:20.786Z,3.30
2019-03-11T23:21:01.378Z,3.30
2019-03-11T23:23:29.965Z,3.30
2019-03-11T23:25:59.308Z,3.20
2019-03-11T23:28:27.930Z,3.20
2019-03-11T23:30:56.506Z,3.20
2019-03-11T23:33:25.136Z,3.10
2019-03-11T23:39:07.036Z,3.00
2019-03-11T23:41:54.995Z,3.00
2019-03-11T23:44:42.915Z,2.90
2019-03-11T23:47:30.834Z,2.90
2019-03-11T23:50:19.670Z,2.80
2019-03-11T23:56:02.861Z,2.80
2019-03-11T23:58:50.754Z,2.80
